createdAt,value
2023-04-02T00:01:52.721Z,101159.30
2023-04-02T00:04:24.127Z,101168.60
2023-04-02T00:07:01.218Z,101169.88
2023-04-02T00:09:34.125Z,101177.41
2023-04-02T00:12:18.985Z,101166.44
2023-04-02T00:14:52.161Z,101185.62
2023-04-02T00:17:26.649Z,101183.66
2023-04-02T00:20:08.983Z,101192.30
2023-04-02T00:22:41.870Z,101196.58
2023-04-02T00:25:15.927Z,101203.11
2023-04-02T00:27:46.256Z,101205.91
2023-04-02T00:30:16.385Z,101209.47
2023-04-02T00:32:47.469Z,101209.45
2023-04-02T00:35:25.916Z,101216.94
2023-04-02T00:37:57.344Z,101216.05
2023-04-02T00:40:33.301Z,101227.13
2023-04-02T00:43:06.121Z,101232.55
2023-04-02T00:45:38.743Z,101228.84
2023-04-02T00:48:24.508Z,101239.49
2023-04-02T00:50:55.423Z,101254.23
2023-04-02T00:53:30.858Z,101254.23
2023-04-02T00:56:00.624Z,101258.30
2023-04-02T00:58:33.058Z,101252.92
2023-04-02T01:01:04.390Z,101263.39
2023-04-02T01:03:38.900Z,101270.87
2023-04-02T01:06:17.064Z,101270.02
2023-04-02T01:09:12.633Z,101277.81
2023-04-02T01:12:07.848Z,101285.09
2023-04-02T01:15:01.519Z,101287.47
2023-04-02T01:17:49.173Z,101289.51
2023-04-02T01:20:37.154Z,101294.75
2023-04-02T01:23:23.049Z,101300.02
2023-04-02T01:26:26.313Z,101296.81
2023-04-02T01:29:14.183Z,101301.55
2023-04-02T01:31:46.886Z,101301.69
2023-04-02T01:34:19.836Z,101312.22
2023-04-02T01:37:01.363Z,101321.87
2023-04-02T01:39:45.802Z,101321.87
2023-04-02T01:42:18.494Z,101326.11
2023-04-02T01:44:56.405Z,101328.14
2023-04-02T01:47:28.967Z,101341.53
2023-04-02T01:50:04.765Z,101337.64
2023-04-02T01:52:43.462Z,101353.58
2023-04-02T01:55:17.433Z,101347.97
2023-04-02T01:57:53.437Z,101352.24
2023-04-02T02:00:24.129Z,101357.98
2023-04-02T02:02:56.077Z,101367.80
2023-04-02T02:05:27.925Z,101370.17
2023-04-02T02:08:01.256Z,101374.79
2023-04-02T02:10:36.469Z,101376.62
2023-04-02T02:13:06.713Z,101392.50
2023-04-02T02:15:37.803Z,101395.39
2023-04-02T02:18:12.035Z,101398.31
2023-04-02T02:20:42.410Z,101405.72
2023-04-02T02:23:13.736Z,101407.29
2023-04-02T02:25:47.727Z,101418.53
2023-04-02T02:28:26.549Z,101419.24
2023-04-02T02:31:02.725Z,101431.67
2023-04-02T02:33:41.540Z,101429.23
2023-04-02T02:36:29.629Z,101439.08
2023-04-02T02:39:20.715Z,101441.78
2023-04-02T02:41:59.915Z,101445.89
2023-04-02T02:44:37.999Z,101450.55
2023-04-02T02:47:19.677Z,101449.62
2023-04-02T02:52:44.467Z,101457.28
2023-04-02T02:55:21.848Z,101469.52
2023-04-02T02:57:56.744Z,101468.66
2023-04-02T03:00:28.333Z,101479.59
2023-04-02T03:02:59.653Z,101479.67
2023-04-02T03:05:31.895Z,101488.61
2023-04-02T03:08:06.671Z,101493.35
2023-04-02T03:10:48.027Z,101492.17
2023-04-02T03:13:26.794Z,101499.10
2023-04-02T03:16:36.130Z,101499.10
2023-04-02T03:19:26.843Z,101506.39
2023-04-02T03:22:01.433Z,101512.59
2023-04-02T03:24:52.340Z,101512.59
2023-04-02T03:27:26.094Z,101519.38
2023-04-02T03:30:24.333Z,101529.25
2023-04-02T03:32:58.075Z,101524.00
2023-04-02T03:35:45.692Z,101541.66
2023-04-02T03:41:01.095Z,101557.59
2023-04-02T03:43:37.525Z,101545.27
2023-04-02T03:46:12.530Z,101559.28
2023-04-02T03:48:48.575Z,101571.25
2023-04-02T03:51:33.819Z,101586.80
2023-04-02T03:54:06.310Z,101599.47
2023-04-02T03:56:41.421Z,101597.31
2023-04-02T03:59:16.145Z,101607.60
2023-04-02T04:02:22.051Z,101612.39
2023-04-02T04:04:52.164Z,101614.48
2023-04-02T04:07:31.103Z,101617.05
2023-04-02T04:10:02.855Z,101614.05
2023-04-02T04:12:39.954Z,101624.86
2023-04-02T04:15:27.773Z,101632.77
2023-04-02T04:18:16.837Z,101638.94
2023-04-02T04:20:57.084Z,101639.58
2023-04-02T04:23:37.890Z,101643.16
2023-04-02T04:26:20.957Z,101654.16
2023-04-02T04:29:22.349Z,101656.94
2023-04-02T04:31:55.823Z,101663.53
2023-04-02T04:34:36.378Z,101673.11
2023-04-02T04:37:11.219Z,101673.11
2023-04-02T04:39:46.559Z,101676.45
2023-04-02T04:42:20.111Z,101684.16
2023-04-02T04:45:01.691Z,101696.16
2023-04-02T04:47:35.915Z,101694.32
2023-04-02T04:50:15.464Z,101701.05
2023-04-02T04:52:45.391Z,101713.55
2023-04-02T04:55:27.309Z,101718.46
2023-04-02T04:58:20.282Z,101727.66
2023-04-02T05:01:24.562Z,101735.23
2023-04-02T05:04:13.880Z,101745.42
2023-04-02T05:06:55.642Z,101746.83
2023-04-02T05:09:34.384Z,101759.93
2023-04-02T05:12:24.331Z,101766.96
2023-04-02T05:14:57.116Z,101766.96
2023-04-02T05:17:45.016Z,101778.83
2023-04-02T05:20:23.692Z,101777.81
2023-04-02T05:23:08.832Z,101789.08
2023-04-02T05:25:41.259Z,101784.50
2023-04-02T05:28:23.371Z,101793.09
2023-04-02T05:31:00.729Z,101798.22
2023-04-02T05:33:34.666Z,101801.77
2023-04-02T05:36:14.273Z,101809.13
2023-04-02T05:38:48.026Z,101812.75
2023-04-02T05:41:38.209Z,101818.30
2023-04-02T05:44:18.380Z,101829.23
2023-04-02T05:46:54.504Z,101830.84
2023-04-02T05:49:31.938Z,101837.28
2023-04-02T05:52:07.745Z,101843.80
2023-04-02T05:54:40.976Z,101848.45
2023-04-02T05:57:29.573Z,101841.58
2023-04-02T05:59:57.601Z,101854.47
2023-04-02T06:02:36.727Z,101864.53
2023-04-02T06:05:11.337Z,101868.63
2023-04-02T06:07:56.089Z,101880.13
2023-04-02T06:10:31.525Z,101880.13
2023-04-02T06:13:07.716Z,101901.66
2023-04-02T06:15:39.948Z,101908.81
2023-04-02T06:18:23.360Z,101903.72
2023-04-02T06:20:54.459Z,101912.94
2023-04-02T06:23:31.107Z,101924.23
2023-04-02T06:26:22.350Z,101924.23
2023-04-02T06:29:03.790Z,101926.95
2023-04-02T06:31:53.357Z,101935.22
2023-04-02T06:34:26.582Z,101936.52
2023-04-02T06:37:20.862Z,101938.70
2023-04-02T06:39:52.151Z,101949.06
2023-04-02T06:42:25.514Z,101958.25
2023-04-02T06:45:21.407Z,101963.22
2023-04-02T06:47:55.397Z,101978.06
2023-04-02T06:50:38.509Z,101960.70
2023-04-02T06:53:11.782Z,101960.70
2023-04-02T06:55:56.052Z,101982.33
2023-04-02T06:58:27.310Z,101994.98
2023-04-02T07:00:57.673Z,101998.52
2023-04-02T07:03:34.110Z,102015.59
2023-04-02T07:06:17.232Z,102021.00
2023-04-02T07:08:48.584Z,102016.63
2023-04-02T07:11:21.723Z,102034.23
2023-04-02T07:13:53.606Z,102035.34
2023-04-02T07:16:26.381Z,102045.53
2023-04-02T07:18:59.796Z,102046.06
2023-04-02T07:21:31.841Z,102061.13
2023-04-02T07:24:01.710Z,102066.36
2023-04-02T07:26:31.273Z,102068.12
2023-04-02T07:29:01.091Z,102077.09
2023-04-02T07:31:30.962Z,102078.08
2023-04-02T07:34:02.152Z,102088.03
2023-04-02T07:36:32.022Z,102087.87
2023-04-02T07:39:02.083Z,102105.95
2023-04-02T07:41:32.001Z,102105.95
2023-04-02T07:44:01.884Z,102103.64
2023-04-02T07:46:31.859Z,102097.34
2023-04-02T07:49:01.798Z,102101.95
2023-04-02T07:51:31.622Z,102102.61
2023-04-02T07:54:01.697Z,102107.48
2023-04-02T07:56:31.695Z,102109.83
2023-04-02T07:59:01.805Z,102109.86
2023-04-02T08:01:35.551Z,102123.05
2023-04-02T08:04:07.919Z,102117.72
2023-04-02T08:06:37.864Z,102127.36
2023-04-02T08:09:07.966Z,102124.69
2023-04-02T08:11:37.747Z,102132.27
2023-04-02T08:14:11.293Z,102139.78
2023-04-02T08:16:52.873Z,102142.80
2023-04-02T08:19:23.451Z,102148.23
2023-04-02T08:21:53.696Z,102158.34
2023-04-02T08:24:23.962Z,102159.23
2023-04-02T08:26:54.337Z,102171.22
2023-04-02T08:29:24.568Z,102165.73
2023-04-02T08:31:54.479Z,102170.53
2023-04-02T08:34:24.338Z,102176.83
2023-04-02T08:36:57.236Z,102181.45
2023-04-02T08:39:28.678Z,102181.30
2023-04-02T08:42:01.666Z,102188.02
2023-04-02T08:45:17.153Z,102198.77
2023-04-02T08:47:40.958Z,102204.02
2023-04-02T08:50:29.043Z,102205.41
2023-04-02T08:53:01.296Z,102220.92
2023-04-02T08:55:55.693Z,102227.59
2023-04-02T08:58:28.629Z,102234.28
2023-04-02T09:01:01.848Z,102235.88
2023-04-02T09:03:43.682Z,102242.95
2023-04-02T09:06:16.893Z,102247.81
2023-04-02T09:08:49.694Z,102258.38
2023-04-02T09:11:59.491Z,102254.83
2023-04-02T09:14:32.638Z,102260.42
2023-04-02T09:17:04.682Z,102268.71
2023-04-02T09:19:37.591Z,102264.11
2023-04-02T09:22:17.307Z,102260.69
2023-04-02T09:24:48.681Z,102264.86
2023-04-02T09:27:24.091Z,102269.98
2023-04-02T09:29:56.899Z,102267.06
2023-04-02T09:32:45.607Z,102272.34
2023-04-02T09:35:25.539Z,102281.80
2023-04-02T09:37:51.186Z,102290.58
2023-04-02T09:40:27.097Z,102290.58
2023-04-02T09:43:06.242Z,102292.04
2023-04-02T09:45:36.203Z,102294.78
2023-04-02T09:48:26.324Z,102303.87
2023-04-02T09:51:13.823Z,102309.09
2023-04-02T09:53:49.373Z,102317.33
2023-04-02T09:56:23.113Z,102322.56
2023-04-02T09:59:16.548Z,102320.65
2023-04-02T10:01:58.120Z,102322.23
2023-04-02T10:04:45.840Z,102332.89
2023-04-02T10:07:36.904Z,102343.17
2023-04-02T10:13:11.879Z,102348.17
2023-04-02T10:15:47.536Z,102348.42
2023-04-02T10:18:44.509Z,102352.73
2023-04-02T10:21:14.835Z,102360.69
2023-04-02T10:23:44.925Z,102367.27
2023-04-02T10:26:27.300Z,102373.98
2023-04-02T10:29:16.765Z,102378.47
2023-04-02T10:31:49.617Z,102384.57
2023-04-02T10:34:27.934Z,102395.91
2023-04-02T10:37:01.276Z,102398.59
2023-04-02T10:39:36.592Z,102397.18
2023-04-02T10:44:59.442Z,102405.05
2023-04-02T10:47:32.588Z,102405.05
2023-04-02T10:50:21.680Z,102405.05
2023-04-02T10:53:19.299Z,102408.58
2023-04-02T10:55:58.038Z,102413.52
2023-04-02T10:58:29.970Z,102413.52
2023-04-02T11:01:02.827Z,102415.59
2023-04-02T11:03:40.007Z,102428.23
2023-04-02T11:06:19.701Z,102434.06
2023-04-02T11:08:52.852Z,102433.00
2023-04-02T11:11:31.473Z,102433.47
2023-04-02T11:14:19.097Z,102436.39
2023-04-02T11:16:51.370Z,102436.02
2023-04-02T11:19:24.069Z,102436.02
2023-04-02T11:22:03.273Z,102434.23
2023-04-02T11:24:47.454Z,102433.95
2023-04-02T11:27:30.238Z,102434.83
2023-04-02T11:30:10.939Z,102432.44
2023-04-02T11:32:47.237Z,102441.73
2023-04-02T11:35:38.167Z,102441.73
2023-04-02T11:38:14.644Z,102445.57
2023-04-02T11:40:50.388Z,102441.57
2023-04-02T11:43:38.083Z,102440.11
2023-04-02T11:46:31.414Z,102443.20
2023-04-02T11:49:12.904Z,102449.56
2023-04-02T11:54:30.579Z,102453.39
2023-04-02T11:57:09.462Z,102459.53
2023-04-02T11:59:45.234Z,102455.88
2023-04-02T12:02:23.422Z,102461.07
2023-04-02T12:05:26.207Z,102464.06
2023-04-02T12:08:11.016Z,102465.99
2023-04-02T12:11:01.910Z,102472.17
2023-04-02T12:13:46.567Z,102468.92
2023-04-02T12:16:18.445Z,102470.91
2023-04-02T12:18:55.034Z,102476.91
2023-04-02T12:21:27.675Z,102474.86
2023-04-02T12:23:59.979Z,102480.36
2023-04-02T12:26:38.539Z,102476.47
2023-04-02T12:29:27.974Z,102490.04
2023-04-02T12:32:00.625Z,102490.04
2023-04-02T12:34:31.644Z,102493.59
2023-04-02T12:37:03.467Z,102494.84
2023-04-02T12:39:35.624Z,102500.52
2023-04-02T12:42:07.038Z,102503.92
2023-04-02T12:44:36.927Z,102504.31
2023-04-02T12:47:07.029Z,102504.66
2023-04-02T12:49:41.998Z,102507.41
2023-04-02T12:52:20.055Z,102507.41
2023-04-02T12:55:05.014Z,102507.91
2023-04-02T12:57:37.065Z,102512.09
2023-04-02T13:00:26.532Z,102509.59
2023-04-02T13:03:08.695Z,102515.55
2023-04-02T13:05:44.072Z,102517.17
2023-04-02T13:08:28.886Z,102510.66
2023-04-02T13:11:01.663Z,102507.84
2023-04-02T13:13:37.762Z,102500.08
2023-04-02T13:16:20.308Z,102502.07
2023-04-02T13:18:51.528Z,102504.34
2023-04-02T13:21:29.554Z,102509.09
2023-04-02T13:23:59.783Z,102504.77
2023-04-02T13:26:30.805Z,102504.77
2023-04-02T13:29:12.100Z,102510.91
2023-04-02T13:31:42.236Z,102515.34
2023-04-02T13:34:13.929Z,102503.95
2023-04-02T13:36:43.961Z,102496.99
2023-04-02T13:39:14.387Z,102502.61
2023-04-02T13:41:47.026Z,102500.08
2023-04-02T13:44:22.217Z,102503.80
2023-04-02T13:46:52.078Z,102513.22
2023-04-02T13:49:23.005Z,102512.19
2023-04-02T13:51:58.816Z,102512.19
2023-04-02T13:54:34.930Z,102505.88
2023-04-02T13:57:04.925Z,102511.52
2023-04-02T13:59:35.220Z,102521.91
2023-04-02T14:02:13.938Z,102520.73
2023-04-02T14:04:49.257Z,102518.71
2023-04-02T14:07:39.702Z,102527.05
2023-04-02T14:10:26.782Z,102529.80
2023-04-02T14:13:02.581Z,102533.39
2023-04-02T14:15:57.812Z,102532.21
2023-04-02T14:18:41.213Z,102535.13
2023-04-02T14:21:19.645Z,102531.84
2023-04-02T14:23:58.479Z,102538.13
2023-04-02T14:26:31.349Z,102538.13
2023-04-02T14:29:12.362Z,102536.39
2023-04-02T14:32:04.253Z,102549.48
2023-04-02T14:34:57.710Z,102557.49
2023-04-02T14:37:55.841Z,102566.88
2023-04-02T14:40:34.675Z,102556.59
2023-04-02T14:43:13.434Z,102557.46
2023-04-02T14:45:46.318Z,102557.46
2023-04-02T14:48:27.465Z,102551.92
2023-04-02T14:51:15.378Z,102559.36
2023-04-02T14:54:06.006Z,102561.58
2023-04-02T14:56:38.881Z,102555.21
2023-04-02T14:59:11.778Z,102566.04
2023-04-02T15:01:44.443Z,102566.04
2023-04-02T15:04:17.117Z,102564.05
2023-04-02T15:06:53.091Z,102572.84
2023-04-02T15:09:28.867Z,102573.69
2023-04-02T15:12:22.050Z,102570.35
2023-04-02T15:14:57.584Z,102579.91
2023-04-02T15:17:28.069Z,102578.95
2023-04-02T15:20:01.057Z,102573.27
2023-04-02T15:22:50.026Z,102582.94
2023-04-02T15:25:38.041Z,102580.69
2023-04-02T15:28:31.186Z,102580.91
2023-04-02T15:31:04.021Z,102583.53
2023-04-02T15:33:48.648Z,102590.38
2023-04-02T15:36:31.404Z,102581.44
2023-04-02T15:39:11.207Z,102579.68
2023-04-02T15:41:49.774Z,102579.68
2023-04-02T15:44:19.441Z,102571.56
2023-04-02T15:47:16.362Z,102589.22
2023-04-02T15:50:04.536Z,102591.91
2023-04-02T15:52:52.329Z,102598.45
2023-04-02T15:55:24.982Z,102598.91
2023-04-02T15:58:23.459Z,102608.77
2023-04-02T16:01:11.459Z,102606.01
2023-04-02T16:03:56.669Z,102605.67
2023-04-02T16:06:32.384Z,102605.67
2023-04-02T16:09:32.357Z,102615.42
2023-04-02T16:12:14.328Z,102612.84
2023-04-02T16:14:46.827Z,102609.25
2023-04-02T16:17:40.629Z,102613.37
2023-04-02T16:20:15.782Z,102624.99
2023-04-02T16:22:59.466Z,102619.03
2023-04-02T16:25:23.452Z,102625.50
2023-04-02T16:28:04.901Z,102631.30
2023-04-02T16:30:54.069Z,102639.53
2023-04-02T16:33:43.154Z,102644.27
2023-04-02T16:36:52.125Z,102644.27
2023-04-02T16:39:36.417Z,102650.30
2023-04-02T16:42:24.454Z,102652.61
2023-04-02T16:45:25.554Z,102655.94
2023-04-02T16:48:07.412Z,102672.38
2023-04-02T16:50:55.484Z,102668.48
2023-04-02T16:53:28.102Z,102665.11
2023-04-02T16:56:09.795Z,102673.20
2023-04-02T16:58:48.960Z,102675.95
2023-04-02T17:01:24.256Z,102683.25
2023-04-02T17:03:56.979Z,102685.16
2023-04-02T17:06:35.931Z,102693.49
2023-04-02T17:09:14.714Z,102683.69
2023-04-02T17:11:50.222Z,102696.36
2023-04-02T17:14:37.978Z,102696.36
2023-04-02T17:17:11.500Z,102701.38
2023-04-02T17:19:44.135Z,102702.89
2023-04-02T17:22:17.673Z,102702.89
2023-04-02T17:24:59.311Z,102704.95
2023-04-02T17:27:41.524Z,102711.30
2023-04-02T17:30:18.760Z,102714.02
2023-04-02T17:32:48.895Z,102717.21
2023-04-02T17:35:27.516Z,102723.77
2023-04-02T17:38:06.796Z,102721.92
2023-04-02T17:40:57.428Z,102730.80
2023-04-02T17:43:43.825Z,102740.00
2023-04-02T17:46:18.269Z,102741.77
2023-04-02T17:48:50.554Z,102750.89
2023-04-02T17:51:24.282Z,102758.74
2023-04-02T17:54:14.730Z,102761.48
2023-04-02T17:56:56.431Z,102758.63
2023-04-02T17:59:32.520Z,102761.22
2023-04-02T18:02:10.906Z,102761.22
2023-04-02T18:04:46.711Z,102774.83
2023-04-02T18:07:31.177Z,102775.51
2023-04-02T18:10:10.340Z,102784.61
2023-04-02T18:12:58.337Z,102777.72
2023-04-02T18:15:43.411Z,102784.88
2023-04-02T18:18:29.165Z,102785.58
2023-04-02T18:21:07.341Z,102795.70
2023-04-02T18:24:09.062Z,102799.95
2023-04-02T18:26:58.888Z,102798.21
2023-04-02T18:29:37.935Z,102807.27
2023-04-02T18:32:29.939Z,102808.63
2023-04-02T18:35:03.157Z,102819.01
2023-04-02T18:37:53.967Z,102824.27
2023-04-02T18:40:32.985Z,102828.44
2023-04-02T18:43:31.713Z,102825.59
2023-04-02T18:46:26.836Z,102826.45
2023-04-02T18:49:21.543Z,102833.61
2023-04-02T18:51:54.453Z,102840.91
2023-04-02T18:54:39.533Z,102839.13
2023-04-02T18:57:34.226Z,102841.22
2023-04-02T19:00:22.140Z,102845.19
2023-04-02T19:03:09.780Z,102849.14
2023-04-02T19:05:51.734Z,102859.57
2023-04-02T19:08:48.673Z,102859.57
2023-04-02T19:11:23.007Z,102861.64
2023-04-02T19:13:53.127Z,102876.05
2023-04-02T19:16:46.903Z,102876.16
2023-04-02T19:19:26.468Z,102878.13
2023-04-02T19:22:01.909Z,102881.05
2023-04-02T19:25:08.737Z,102881.05
2023-04-02T19:27:41.609Z,102889.36
2023-04-02T19:30:19.978Z,102887.23
2023-04-02T19:33:09.155Z,102895.09
2023-04-02T19:36:00.209Z,102902.20
2023-04-02T19:38:58.230Z,102908.37
2023-04-02T19:41:39.636Z,102906.94
2023-04-02T19:44:13.858Z,102917.76
2023-04-02T19:46:46.265Z,102915.13
2023-04-02T19:49:20.082Z,102910.71
2023-04-02T19:51:50.872Z,102915.38
2023-04-02T19:54:20.766Z,102914.94
2023-04-02T19:56:51.059Z,102925.94
2023-04-02T19:59:21.326Z,102924.25
2023-04-02T20:01:51.142Z,102924.25
2023-04-02T20:04:21.064Z,102932.11
2023-04-02T20:06:51.649Z,102932.94
2023-04-02T20:09:21.728Z,102923.91
2023-04-02T20:11:51.850Z,102931.06
2023-04-02T20:14:22.163Z,102927.72
2023-04-02T20:16:52.332Z,102931.48
2023-04-02T20:19:22.947Z,102932.84
2023-04-02T20:21:52.784Z,102939.17
2023-04-02T20:24:22.592Z,102939.89
2023-04-02T20:26:52.532Z,102944.91
2023-04-02T20:29:24.498Z,102944.91
2023-04-02T20:31:54.477Z,102944.69
2023-04-02T20:34:24.214Z,102945.80
2023-04-02T20:36:54.455Z,102947.97
2023-04-02T20:39:24.852Z,102952.27
2023-04-02T20:41:55.437Z,102952.86
2023-04-02T20:44:25.051Z,102956.39
2023-04-02T20:46:55.126Z,102960.09
2023-04-02T20:49:24.963Z,102961.16
2023-04-02T20:51:54.631Z,102959.64
2023-04-02T20:54:24.117Z,102970.61
2023-04-02T20:56:53.956Z,102971.90
2023-04-02T20:59:23.765Z,102971.90
2023-04-02T21:01:53.705Z,102970.03
2023-04-02T21:04:23.332Z,102978.17
2023-04-02T21:06:55.145Z,102975.35
2023-04-02T21:09:25.437Z,102982.71
2023-04-02T21:11:55.248Z,102984.06
2023-04-02T21:14:24.900Z,102988.51
2023-04-02T21:16:54.676Z,102990.44
2023-04-02T21:19:24.473Z,102992.81
2023-04-02T21:21:55.920Z,102993.07
2023-04-02T21:24:25.687Z,103002.80
2023-04-02T21:26:55.564Z,103009.13
2023-04-02T21:29:25.766Z,103014.89
2023-04-02T21:31:55.690Z,103013.00
2023-04-02T21:34:25.367Z,103011.61
2023-04-02T21:36:55.344Z,103017.48
2023-04-02T21:39:25.681Z,103017.48
2023-04-02T21:41:55.861Z,103017.80
2023-04-02T21:44:25.937Z,103016.94
2023-04-02T21:46:55.774Z,103015.61
2023-04-02T21:49:27.157Z,103016.66
2023-04-02T21:51:57.075Z,103021.25
2023-04-02T21:54:27.158Z,103019.34
2023-04-02T21:56:57.008Z,103021.84
2023-04-02T21:59:27.321Z,103020.16
2023-04-02T22:01:57.187Z,103020.53
2023-04-02T22:04:29.261Z,103020.25
2023-04-02T22:06:59.131Z,103022.23
2023-04-02T22:09:29.565Z,103030.41
2023-04-02T22:11:59.952Z,103025.73
2023-04-02T22:14:30.629Z,103025.58
2023-04-02T22:17:00.649Z,103031.11
2023-04-02T22:19:32.541Z,103030.03
2023-04-02T22:22:02.402Z,103027.30
2023-04-02T22:24:32.578Z,103032.09
2023-04-02T22:27:02.389Z,103029.63
2023-04-02T22:29:33.334Z,103039.09
2023-04-02T22:32:03.148Z,103039.67
2023-04-02T22:34:33.204Z,103037.34
2023-04-02T22:37:02.994Z,103035.08
2023-04-02T22:39:33.078Z,103042.89
2023-04-02T22:42:02.957Z,103035.47
2023-04-02T22:44:33.083Z,103037.61
2023-04-02T22:47:03.146Z,103041.18
2023-04-02T22:49:33.280Z,103041.06
2023-04-02T22:52:04.850Z,103051.03
2023-04-02T22:54:34.947Z,103048.43
2023-04-02T22:57:04.920Z,103036.95
2023-04-02T22:59:35.008Z,103039.36
2023-04-02T23:02:04.847Z,103046.20
2023-04-02T23:04:35.450Z,103050.63
2023-04-02T23:07:05.316Z,103046.91
2023-04-02T23:09:35.596Z,103048.14
2023-04-02T23:12:05.823Z,103043.83
2023-04-02T23:14:35.946Z,103046.79
2023-04-02T23:17:05.764Z,103047.14
2023-04-02T23:19:35.894Z,103053.27
2023-04-02T23:22:05.814Z,103046.47
2023-04-02T23:24:35.965Z,103046.47
2023-04-02T23:27:06.119Z,103044.92
2023-04-02T23:29:36.234Z,103050.27
2023-04-02T23:32:06.634Z,103058.63
2023-04-02T23:34:36.803Z,103055.44
2023-04-02T23:37:06.905Z,103057.60
2023-04-02T23:39:37.005Z,103057.35
2023-04-02T23:42:07.030Z,103064.04
2023-04-02T23:44:36.882Z,103065.04
2023-04-02T23:47:06.865Z,103064.41
2023-04-02T23:49:36.748Z,103067.25
2023-04-02T23:52:06.752Z,103072.09
2023-04-02T23:54:36.539Z,103072.16
2023-04-02T23:57:06.683Z,103074.78
2023-04-02T23:59:36.810Z,103071.84
